sensor_id;sensor_type;location;lat;lon;timestamp;P1;durP1;ratioP1;P2;durP2;ratioP2
75272;SDS011;63869;52.344;16.928;2022-12-07T00:02:24;13.85;;;6.43;;
75272;SDS011;63869;52.344;16.928;2022-12-07T00:04:49;12.50;;;6.30;;
75272;SDS011;63869;52.344;16.928;2022-12-07T00:07:15;17.80;;;6.32;;
75272;SDS011;63869;52.344;16.928;2022-12-07T00:09:40;14.00;;;6.30;;
75272;SDS011;63869;52.344;16.928;2022-12-07T00:12:06;13.18;;;6.13;;
75272;SDS011;63869;52.344;16.928;2022-12-07T00:14:32;12.25;;;6.53;;
75272;SDS011;63869;52.344;16.928;2022-12-07T00:16:58;13.68;;;7.25;;
75272;SDS011;63869;52.344;16.928;2022-12-07T00:19:23;14.15;;;6.95;;
75272;SDS011;63869;52.344;16.928;2022-12-07T00:21:48;13.23;;;6.95;;
75272;SDS011;63869;52.344;16.928;2022-12-07T00:24:14;15.82;;;6.95;;
75272;SDS011;63869;52.344;16.928;2022-12-07T00:26:39;13.45;;;6.78;;
75272;SDS011;63869;52.344;16.928;2022-12-07T00:29:07;11.77;;;6.88;;
75272;SDS011;63869;52.344;16.928;2022-12-07T00:31:50;13.75;;;6.60;;
75272;SDS011;63869;52.344;16.928;2022-12-07T00:34:17;11.48;;;5.85;;
75272;SDS011;63869;52.344;16.928;2022-12-07T00:36:44;14.32;;;6.47;;
75272;SDS011;63869;52.344;16.928;2022-12-07T00:39:09;14.55;;;6.47;;
75272;SDS011;63869;52.344;16.928;2022-12-07T00:41:35;14.30;;;6.57;;
75272;SDS011;63869;52.344;16.928;2022-12-07T00:44:00;12.50;;;6.15;;
75272;SDS011;63869;52.344;16.928;2022-12-07T00:46:25;13.73;;;6.43;;
75272;SDS011;63869;52.344;16.928;2022-12-07T00:48:51;12.10;;;6.05;;
75272;SDS011;63869;52.344;16.928;2022-12-07T00:51:18;12.38;;;5.80;;
75272;SDS011;63869;52.344;16.928;2022-12-07T00:53:45;11.25;;;5.65;;
75272;SDS011;63869;52.344;16.928;2022-12-07T00:56:12;11.85;;;5.55;;
75272;SDS011;63869;52.344;16.928;2022-12-07T00:58:39;10.20;;;5.10;;
75272;SDS011;63869;52.344;16.928;2022-12-07T01:01:06;13.45;;;5.45;;
75272;SDS011;63869;52.344;16.928;2022-12-07T01:03:33;10.98;;;5.60;;
75272;SDS011;63869;52.344;16.928;2022-12-07T01:05:58;10.07;;;5.22;;
75272;SDS011;63869;52.344;16.928;2022-12-07T01:08:25;13.57;;;6.40;;
75272;SDS011;63869;52.344;16.928;2022-12-07T01:11:04;11.35;;;5.63;;
75272;SDS011;63869;52.344;16.928;2022-12-07T01:13:32;12.07;;;6.35;;
75272;SDS011;63869;52.344;16.928;2022-12-07T01:15:59;13.18;;;6.22;;
75272;SDS011;63869;52.344;16.928;2022-12-07T01:18:26;13.00;;;6.30;;
75272;SDS011;63869;52.344;16.928;2022-12-07T01:23:29;12.73;;;6.15;;
75272;SDS011;63869;52.344;16.928;2022-12-07T01:25:57;14.40;;;6.72;;
75272;SDS011;63869;52.344;16.928;2022-12-07T01:28:24;14.73;;;6.63;;
75272;SDS011;63869;52.344;16.928;2022-12-07T01:30:56;14.52;;;6.45;;
75272;SDS011;63869;52.344;16.928;2022-12-07T01:33:22;13.70;;;7.03;;
75272;SDS011;63869;52.344;16.928;2022-12-07T01:35:47;15.68;;;7.22;;
75272;SDS011;63869;52.344;16.928;2022-12-07T01:38:12;15.18;;;6.63;;
75272;SDS011;63869;52.344;16.928;2022-12-07T01:40:38;16.70;;;7.20;;
75272;SDS011;63869;52.344;16.928;2022-12-07T01:43:04;13.43;;;6.85;;
75272;SDS011;63869;52.344;16.928;2022-12-07T01:45:39;15.70;;;6.90;;
75272;SDS011;63869;52.344;16.928;2022-12-07T01:48:07;14.38;;;6.72;;
75272;SDS011;63869;52.344;16.928;2022-12-07T01:50:35;14.57;;;6.50;;
75272;SDS011;63869;52.344;16.928;2022-12-07T01:53:01;13.48;;;6.80;;
75272;SDS011;63869;52.344;16.928;2022-12-07T01:55:30;13.93;;;6.40;;
75272;SDS011;63869;52.344;16.928;2022-12-07T01:57:55;13.02;;;6.45;;
75272;SDS011;63869;52.344;16.928;2022-12-07T02:00:22;12.65;;;6.07;;
75272;SDS011;63869;52.344;16.928;2022-12-07T02:05:43;14.45;;;6.88;;
75272;SDS011;63869;52.344;16.928;2022-12-07T02:08:09;13.73;;;6.18;;
75272;SDS011;63869;52.344;16.928;2022-12-07T02:10:36;14.00;;;6.68;;
75272;SDS011;63869;52.344;16.928;2022-12-07T02:13:21;15.13;;;7.72;;
75272;SDS011;63869;52.344;16.928;2022-12-07T02:18:44;30.42;;;14.40;;
75272;SDS011;63869;52.344;16.928;2022-12-07T02:31:55;26.23;;;14.80;;
75272;SDS011;63869;52.344;16.928;2022-12-07T02:37:32;21.23;;;12.77;;
75272;SDS011;63869;52.344;16.928;2022-12-07T02:40:14;17.08;;;9.93;;
75272;SDS011;63869;52.344;16.928;2022-12-07T02:42:49;18.83;;;9.20;;
75272;SDS011;63869;52.344;16.928;2022-12-07T02:45:22;17.35;;;9.52;;
75272;SDS011;63869;52.344;16.928;2022-12-07T02:47:51;16.02;;;8.02;;
75272;SDS011;63869;52.344;16.928;2022-12-07T02:50:19;16.30;;;7.88;;
75272;SDS011;63869;52.344;16.928;2022-12-07T02:52:46;15.80;;;7.93;;
75272;SDS011;63869;52.344;16.928;2022-12-07T02:55:11;14.13;;;6.82;;
75272;SDS011;63869;52.344;16.928;2022-12-07T02:57:49;13.10;;;6.75;;
75272;SDS011;63869;52.344;16.928;2022-12-07T03:00:28;12.88;;;6.72;;
75272;SDS011;63869;52.344;16.928;2022-12-07T03:03:00;12.30;;;6.10;;
75272;SDS011;63869;52.344;16.928;2022-12-07T03:05:37;14.57;;;7.32;;
75272;SDS011;63869;52.344;16.928;2022-12-07T03:08:13;16.00;;;7.47;;
75272;SDS011;63869;52.344;16.928;2022-12-07T03:16:54;15.75;;;8.25;;
75272;SDS011;63869;52.344;16.928;2022-12-07T03:19:23;15.40;;;8.15;;
75272;SDS011;63869;52.344;16.928;2022-12-07T03:21:53;15.13;;;7.15;;
75272;SDS011;63869;52.344;16.928;2022-12-07T03:24:24;13.18;;;6.97;;
75272;SDS011;63869;52.344;16.928;2022-12-07T03:27:00;14.07;;;6.70;;
75272;SDS011;63869;52.344;16.928;2022-12-07T03:29:31;11.45;;;6.68;;
75272;SDS011;63869;52.344;16.928;2022-12-07T03:32:03;11.68;;;6.55;;
75272;SDS011;63869;52.344;16.928;2022-12-07T03:34:40;13.20;;;6.32;;
75272;SDS011;63869;52.344;16.928;2022-12-07T03:37:16;12.75;;;6.55;;
75272;SDS011;63869;52.344;16.928;2022-12-07T03:42:34;11.57;;;6.20;;
75272;SDS011;63869;52.344;16.928;2022-12-07T03:45:01;13.05;;;6.38;;
75272;SDS011;63869;52.344;16.928;2022-12-07T03:47:40;13.63;;;6.53;;
75272;SDS011;63869;52.344;16.928;2022-12-07T03:50:12;13.02;;;6.65;;
75272;SDS011;63869;52.344;16.928;2022-12-07T03:52:47;13.05;;;6.82;;
75272;SDS011;63869;52.344;16.928;2022-12-07T03:55:27;15.73;;;8.20;;
75272;SDS011;63869;52.344;16.928;2022-12-07T03:57:57;19.38;;;10.57;;
75272;SDS011;63869;52.344;16.928;2022-12-07T04:00:26;18.45;;;9.85;;
75272;SDS011;63869;52.344;16.928;2022-12-07T04:02:52;16.88;;;9.25;;
75272;SDS011;63869;52.344;16.928;2022-12-07T04:05:18;20.10;;;10.68;;
75272;SDS011;63869;52.344;16.928;2022-12-07T04:07:43;17.48;;;9.02;;
75272;SDS011;63869;52.344;16.928;2022-12-07T04:10:09;15.50;;;8.50;;
75272;SDS011;63869;52.344;16.928;2022-12-07T04:12:35;15.82;;;8.75;;
75272;SDS011;63869;52.344;16.928;2022-12-07T04:15:00;16.67;;;9.38;;
75272;SDS011;63869;52.344;16.928;2022-12-07T04:17:25;15.68;;;8.75;;
75272;SDS011;63869;52.344;16.928;2022-12-07T04:19:51;19.13;;;10.65;;
75272;SDS011;63869;52.344;16.928;2022-12-07T04:22:16;15.93;;;8.45;;
75272;SDS011;63869;52.344;16.928;2022-12-07T04:24:41;17.15;;;9.05;;
75272;SDS011;63869;52.344;16.928;2022-12-07T04:27:07;14.18;;;7.72;;
75272;SDS011;63869;52.344;16.928;2022-12-07T04:29:32;14.38;;;7.90;;
75272;SDS011;63869;52.344;16.928;2022-12-07T04:31:57;12.05;;;7.20;;
75272;SDS011;63869;52.344;16.928;2022-12-07T04:34:23;13.05;;;7.10;;
75272;SDS011;63869;52.344;16.928;2022-12-07T04:36:48;11.32;;;6.80;;
75272;SDS011;63869;52.344;16.928;2022-12-07T04:39:20;12.30;;;7.20;;
75272;SDS011;63869;52.344;16.928;2022-12-07T04:41:48;10.52;;;6.55;;
75272;SDS011;63869;52.344;16.928;2022-12-07T04:44:14;13.70;;;7.10;;
75272;SDS011;63869;52.344;16.928;2022-12-07T04:46:39;14.98;;;7.15;;
75272;SDS011;63869;52.344;16.928;2022-12-07T04:49:05;21.10;;;10.40;;
75272;SDS011;63869;52.344;16.928;2022-12-07T04:51:31;14.52;;;7.18;;
75272;SDS011;63869;52.344;16.928;2022-12-07T04:53:56;14.98;;;8.02;;
75272;SDS011;63869;52.344;16.928;2022-12-07T04:56:22;13.55;;;7.28;;
75272;SDS011;63869;52.344;16.928;2022-12-07T04:58:48;14.95;;;7.82;;
75272;SDS011;63869;52.344;16.928;2022-12-07T05:01:14;14.10;;;7.28;;
75272;SDS011;63869;52.344;16.928;2022-12-07T05:03:41;14.60;;;7.43;;
75272;SDS011;63869;52.344;16.928;2022-12-07T05:06:06;14.20;;;7.30;;
75272;SDS011;63869;52.344;16.928;2022-12-07T05:08:33;13.40;;;7.15;;
75272;SDS011;63869;52.344;16.928;2022-12-07T05:10:59;15.43;;;7.82;;
75272;SDS011;63869;52.344;16.928;2022-12-07T05:13:24;12.68;;;7.07;;
75272;SDS011;63869;52.344;16.928;2022-12-07T05:15:50;11.63;;;6.78;;
75272;SDS011;63869;52.344;16.928;2022-12-07T05:18:15;12.68;;;7.35;;
75272;SDS011;63869;52.344;16.928;2022-12-07T05:20:41;12.25;;;7.03;;
75272;SDS011;63869;52.344;16.928;2022-12-07T05:23:07;12.13;;;6.85;;
75272;SDS011;63869;52.344;16.928;2022-12-07T05:25:33;11.00;;;6.28;;
75272;SDS011;63869;52.344;16.928;2022-12-07T05:27:58;11.98;;;6.60;;
75272;SDS011;63869;52.344;16.928;2022-12-07T05:30:24;12.60;;;6.75;;
75272;SDS011;63869;52.344;16.928;2022-12-07T05:32:50;18.60;;;8.70;;
75272;SDS011;63869;52.344;16.928;2022-12-07T05:35:16;21.95;;;9.35;;
75272;SDS011;63869;52.344;16.928;2022-12-07T05:37:41;22.13;;;9.43;;
75272;SDS011;63869;52.344;16.928;2022-12-07T05:40:07;24.27;;;9.60;;
75272;SDS011;63869;52.344;16.928;2022-12-07T05:42:33;24.05;;;10.07;;
75272;SDS011;63869;52.344;16.928;2022-12-07T05:44:58;26.83;;;11.13;;
75272;SDS011;63869;52.344;16.928;2022-12-07T05:47:23;25.83;;;11.23;;
75272;SDS011;63869;52.344;16.928;2022-12-07T05:49:48;25.55;;;11.25;;
75272;SDS011;63869;52.344;16.928;2022-12-07T05:52:14;24.08;;;10.52;;
75272;SDS011;63869;52.344;16.928;2022-12-07T05:54:39;22.35;;;10.35;;
75272;SDS011;63869;52.344;16.928;2022-12-07T05:57:04;21.25;;;9.48;;
75272;SDS011;63869;52.344;16.928;2022-12-07T05:59:30;20.15;;;8.65;;
75272;SDS011;63869;52.344;16.928;2022-12-07T06:01:56;21.25;;;8.90;;
75272;SDS011;63869;52.344;16.928;2022-12-07T06:04:27;15.93;;;8.02;;
75272;SDS011;63869;52.344;16.928;2022-12-07T06:06:55;17.35;;;8.13;;
75272;SDS011;63869;52.344;16.928;2022-12-07T06:09:20;15.88;;;8.40;;
75272;SDS011;63869;52.344;16.928;2022-12-07T06:11:47;15.50;;;8.18;;
75272;SDS011;63869;52.344;16.928;2022-12-07T06:14:31;15.40;;;7.85;;
75272;SDS011;63869;52.344;16.928;2022-12-07T06:16:56;14.13;;;7.00;;
75272;SDS011;63869;52.344;16.928;2022-12-07T06:19:22;14.23;;;6.93;;
75272;SDS011;63869;52.344;16.928;2022-12-07T06:21:47;17.15;;;7.90;;
75272;SDS011;63869;52.344;16.928;2022-12-07T06:24:13;14.52;;;7.20;;
75272;SDS011;63869;52.344;16.928;2022-12-07T06:26:40;15.20;;;7.32;;
75272;SDS011;63869;52.344;16.928;2022-12-07T06:29:05;13.48;;;6.35;;
75272;SDS011;63869;52.344;16.928;2022-12-07T06:31:31;11.48;;;6.72;;
75272;SDS011;63869;52.344;16.928;2022-12-07T06:33:57;12.55;;;6.10;;
75272;SDS011;63869;52.344;16.928;2022-12-07T06:36:27;12.35;;;6.10;;
75272;SDS011;63869;52.344;16.928;2022-12-07T06:38:52;12.65;;;6.40;;
75272;SDS011;63869;52.344;16.928;2022-12-07T06:41:18;11.48;;;6.45;;
75272;SDS011;63869;52.344;16.928;2022-12-07T06:43:43;15.38;;;7.10;;
75272;SDS011;63869;52.344;16.928;2022-12-07T06:46:08;15.00;;;7.25;;
75272;SDS011;63869;52.344;16.928;2022-12-07T06:48:34;12.68;;;6.95;;
75272;SDS011;63869;52.344;16.928;2022-12-07T06:50:59;12.60;;;6.70;;
75272;SDS011;63869;52.344;16.928;2022-12-07T06:53:25;12.70;;;7.03;;
75272;SDS011;63869;52.344;16.928;2022-12-07T06:55:50;13.32;;;7.18;;
75272;SDS011;63869;52.344;16.928;2022-12-07T06:58:16;11.27;;;6.45;;
75272;SDS011;63869;52.344;16.928;2022-12-07T07:00:42;12.88;;;7.13;;
75272;SDS011;63869;52.344;16.928;2022-12-07T07:03:07;12.13;;;6.63;;
75272;SDS011;63869;52.344;16.928;2022-12-07T07:05:33;10.07;;;6.28;;
75272;SDS011;63869;52.344;16.928;2022-12-07T07:07:58;15.48;;;9.52;;
75272;SDS011;63869;52.344;16.928;2022-12-07T07:10:23;15.90;;;9.43;;
75272;SDS011;63869;52.344;16.928;2022-12-07T07:12:49;17.50;;;9.57;;
75272;SDS011;63869;52.344;16.928;2022-12-07T07:15:14;13.70;;;8.40;;
75272;SDS011;63869;52.344;16.928;2022-12-07T07:17:39;15.05;;;7.88;;
75272;SDS011;63869;52.344;16.928;2022-12-07T07:20:05;14.85;;;7.70;;
75272;SDS011;63869;52.344;16.928;2022-12-07T07:22:30;14.32;;;7.60;;
75272;SDS011;63869;52.344;16.928;2022-12-07T07:24:56;17.23;;;8.88;;
75272;SDS011;63869;52.344;16.928;2022-12-07T07:27:21;15.27;;;8.30;;
75272;SDS011;63869;52.344;16.928;2022-12-07T07:29:46;16.08;;;8.88;;
75272;SDS011;63869;52.344;16.928;2022-12-07T07:32:11;14.00;;;8.10;;
75272;SDS011;63869;52.344;16.928;2022-12-07T07:34:37;16.35;;;8.30;;
75272;SDS011;63869;52.344;16.928;2022-12-07T07:37:02;19.67;;;9.50;;
75272;SDS011;63869;52.344;16.928;2022-12-07T07:39:28;14.75;;;6.90;;
75272;SDS011;63869;52.344;16.928;2022-12-07T07:41:53;16.08;;;7.57;;
75272;SDS011;63869;52.344;16.928;2022-12-07T07:44:18;18.08;;;8.25;;
75272;SDS011;63869;52.344;16.928;2022-12-07T07:46:44;16.92;;;8.77;;
75272;SDS011;63869;52.344;16.928;2022-12-07T07:49:09;14.57;;;7.07;;
75272;SDS011;63869;52.344;16.928;2022-12-07T07:51:35;10.48;;;5.40;;
75272;SDS011;63869;52.344;16.928;2022-12-07T07:54:01;11.57;;;5.43;;
75272;SDS011;63869;52.344;16.928;2022-12-07T07:56:27;14.43;;;6.43;;
75272;SDS011;63869;52.344;16.928;2022-12-07T07:58:52;10.65;;;4.90;;
75272;SDS011;63869;52.344;16.928;2022-12-07T08:01:18;13.07;;;5.82;;
75272;SDS011;63869;52.344;16.928;2022-12-07T08:03:44;8.48;;;4.55;;
75272;SDS011;63869;52.344;16.928;2022-12-07T08:06:12;10.18;;;4.80;;
75272;SDS011;63869;52.344;16.928;2022-12-07T08:08:38;10.68;;;5.15;;
75272;SDS011;63869;52.344;16.928;2022-12-07T08:11:06;12.93;;;6.28;;
75272;SDS011;63869;52.344;16.928;2022-12-07T08:13:32;12.73;;;6.13;;
75272;SDS011;63869;52.344;16.928;2022-12-07T08:15:58;12.82;;;5.63;;
75272;SDS011;63869;52.344;16.928;2022-12-07T08:18:29;11.65;;;5.35;;
75272;SDS011;63869;52.344;16.928;2022-12-07T08:20:58;11.70;;;5.75;;
75272;SDS011;63869;52.344;16.928;2022-12-07T08:23:25;12.93;;;6.60;;
75272;SDS011;63869;52.344;16.928;2022-12-07T08:25:50;14.00;;;6.55;;
75272;SDS011;63869;52.344;16.928;2022-12-07T08:28:15;12.68;;;6.22;;
75272;SDS011;63869;52.344;16.928;2022-12-07T08:30:41;14.65;;;6.22;;
75272;SDS011;63869;52.344;16.928;2022-12-07T08:33:06;12.25;;;5.95;;
75272;SDS011;63869;52.344;16.928;2022-12-07T08:35:32;14.13;;;6.55;;
75272;SDS011;63869;52.344;16.928;2022-12-07T08:37:59;13.77;;;5.75;;
75272;SDS011;63869;52.344;16.928;2022-12-07T08:40:24;11.68;;;6.38;;
75272;SDS011;63869;52.344;16.928;2022-12-07T08:42:50;11.73;;;6.15;;
75272;SDS011;63869;52.344;16.928;2022-12-07T08:45:16;15.68;;;6.90;;
75272;SDS011;63869;52.344;16.928;2022-12-07T08:47:53;17.48;;;8.25;;
75272;SDS011;63869;52.344;16.928;2022-12-07T08:50:23;14.02;;;6.80;;
75272;SDS011;63869;52.344;16.928;2022-12-07T08:52:50;16.83;;;6.93;;
75272;SDS011;63869;52.344;16.928;2022-12-07T08:55:18;14.52;;;6.40;;
75272;SDS011;63869;52.344;16.928;2022-12-07T08:57:44;18.38;;;7.03;;
75272;SDS011;63869;52.344;16.928;2022-12-07T09:00:10;14.88;;;7.15;;
75272;SDS011;63869;52.344;16.928;2022-12-07T09:02:36;14.95;;;6.85;;
75272;SDS011;63869;52.344;16.928;2022-12-07T09:05:01;14.05;;;6.70;;
75272;SDS011;63869;52.344;16.928;2022-12-07T09:07:27;19.67;;;8.13;;
75272;SDS011;63869;52.344;16.928;2022-12-07T09:09:52;19.67;;;8.63;;
75272;SDS011;63869;52.344;16.928;2022-12-07T09:12:18;15.75;;;7.68;;
75272;SDS011;63869;52.344;16.928;2022-12-07T09:14:43;18.58;;;9.32;;
75272;SDS011;63869;52.344;16.928;2022-12-07T09:17:09;21.13;;;9.32;;
75272;SDS011;63869;52.344;16.928;2022-12-07T09:19:35;18.15;;;9.30;;
75272;SDS011;63869;52.344;16.928;2022-12-07T09:22:01;22.60;;;9.68;;
75272;SDS011;63869;52.344;16.928;2022-12-07T09:24:26;18.00;;;9.27;;
75272;SDS011;63869;52.344;16.928;2022-12-07T09:26:51;18.23;;;8.27;;
75272;SDS011;63869;52.344;16.928;2022-12-07T09:29:17;17.33;;;8.68;;
75272;SDS011;63869;52.344;16.928;2022-12-07T09:31:42;45.60;;;11.63;;
75272;SDS011;63869;52.344;16.928;2022-12-07T09:34:07;26.90;;;9.82;;
75272;SDS011;63869;52.344;16.928;2022-12-07T09:36:33;37.88;;;13.27;;
75272;SDS011;63869;52.344;16.928;2022-12-07T09:38:58;22.15;;;9.23;;
75272;SDS011;63869;52.344;16.928;2022-12-07T09:41:24;17.63;;;8.57;;
75272;SDS011;63869;52.344;16.928;2022-12-07T09:43:52;20.00;;;8.50;;
75272;SDS011;63869;52.344;16.928;2022-12-07T09:46:27;17.98;;;8.50;;
75272;SDS011;63869;52.344;16.928;2022-12-07T09:48:56;17.90;;;8.15;;
75272;SDS011;63869;52.344;16.928;2022-12-07T09:51:22;17.45;;;8.60;;
75272;SDS011;63869;52.344;16.928;2022-12-07T09:53:49;19.05;;;8.95;;
75272;SDS011;63869;52.344;16.928;2022-12-07T09:56:18;20.02;;;8.20;;
75272;SDS011;63869;52.344;16.928;2022-12-07T09:58:45;19.50;;;9.05;;
75272;SDS011;63869;52.344;16.928;2022-12-07T10:01:21;19.02;;;9.80;;
75272;SDS011;63869;52.344;16.928;2022-12-07T10:03:54;23.20;;;10.60;;
75272;SDS011;63869;52.344;16.928;2022-12-07T10:06:23;21.13;;;9.25;;
75272;SDS011;63869;52.344;16.928;2022-12-07T10:08:49;19.10;;;9.32;;
75272;SDS011;63869;52.344;16.928;2022-12-07T10:11:14;20.80;;;9.65;;
75272;SDS011;63869;52.344;16.928;2022-12-07T10:18:49;17.90;;;8.80;;
75272;SDS011;63869;52.344;16.928;2022-12-07T10:21:18;21.73;;;10.02;;
75272;SDS011;63869;52.344;16.928;2022-12-07T10:26:53;22.80;;;9.27;;
75272;SDS011;63869;52.344;16.928;2022-12-07T10:29:29;24.50;;;10.07;;
75272;SDS011;63869;52.344;16.928;2022-12-07T10:32:03;22.75;;;9.90;;
75272;SDS011;63869;52.344;16.928;2022-12-07T10:34:35;27.75;;;11.60;;
75272;SDS011;63869;52.344;16.928;2022-12-07T10:37:15;28.27;;;10.93;;
75272;SDS011;63869;52.344;16.928;2022-12-07T10:42:27;20.05;;;10.30;;
75272;SDS011;63869;52.344;16.928;2022-12-07T10:45:08;24.65;;;9.23;;
75272;SDS011;63869;52.344;16.928;2022-12-07T10:47:38;20.42;;;10.30;;
75272;SDS011;63869;52.344;16.928;2022-12-07T11:07:41;41.92;;;19.67;;
75272;SDS011;63869;52.344;16.928;2022-12-07T11:12:50;34.17;;;13.77;;
75272;SDS011;63869;52.344;16.928;2022-12-07T11:21:09;64.72;;;28.13;;
75272;SDS011;63869;52.344;16.928;2022-12-07T11:23:56;50.42;;;21.75;;
75272;SDS011;63869;52.344;16.928;2022-12-07T11:26:34;34.83;;;14.63;;
75272;SDS011;63869;52.344;16.928;2022-12-07T11:35:11;26.38;;;12.88;;
75272;SDS011;63869;52.344;16.928;2022-12-07T11:37:47;30.60;;;13.27;;
75272;SDS011;63869;52.344;16.928;2022-12-07T11:40:20;36.42;;;14.98;;
75272;SDS011;63869;52.344;16.928;2022-12-07T11:42:55;34.17;;;14.23;;
75272;SDS011;63869;52.344;16.928;2022-12-07T11:45:27;27.73;;;12.80;;
75272;SDS011;63869;52.344;16.928;2022-12-07T11:55:49;28.88;;;12.50;;
75272;SDS011;63869;52.344;16.928;2022-12-07T12:01:24;33.13;;;13.15;;
75272;SDS011;63869;52.344;16.928;2022-12-07T12:06:43;29.67;;;12.18;;
75272;SDS011;63869;52.344;16.928;2022-12-07T12:09:14;31.02;;;13.60;;
75272;SDS011;63869;52.344;16.928;2022-12-07T12:14:42;30.75;;;11.75;;
75272;SDS011;63869;52.344;16.928;2022-12-07T12:23:23;30.65;;;12.90;;
75272;SDS011;63869;52.344;16.928;2022-12-07T12:26:02;33.97;;;12.55;;
75272;SDS011;63869;52.344;16.928;2022-12-07T12:28:32;31.02;;;12.82;;
75272;SDS011;63869;52.344;16.928;2022-12-07T12:31:06;31.25;;;12.40;;
75272;SDS011;63869;52.344;16.928;2022-12-07T12:33:35;28.63;;;13.40;;
75272;SDS011;63869;52.344;16.928;2022-12-07T12:44:01;27.35;;;12.30;;
75272;SDS011;63869;52.344;16.928;2022-12-07T12:48:53;26.10;;;11.60;;
75272;SDS011;63869;52.344;16.928;2022-12-07T12:51:39;28.60;;;11.63;;
75272;SDS011;63869;52.344;16.928;2022-12-07T12:56:46;27.25;;;11.30;;
75272;SDS011;63869;52.344;16.928;2022-12-07T13:10:22;20.52;;;9.55;;
75272;SDS011;63869;52.344;16.928;2022-12-07T13:20:53;19.77;;;9.63;;
75272;SDS011;63869;52.344;16.928;2022-12-07T13:23:29;24.02;;;9.65;;
75272;SDS011;63869;52.344;16.928;2022-12-07T13:26:17;20.75;;;8.88;;
75272;SDS011;63869;52.344;16.928;2022-12-07T13:29:04;21.98;;;12.45;;
75272;SDS011;63869;52.344;16.928;2022-12-07T13:31:44;23.02;;;10.48;;
75272;SDS011;63869;52.344;16.928;2022-12-07T13:36:56;19.52;;;9.25;;
75272;SDS011;63869;52.344;16.928;2022-12-07T13:39:23;20.80;;;9.50;;
75272;SDS011;63869;52.344;16.928;2022-12-07T13:41:57;24.42;;;12.15;;
75272;SDS011;63869;52.344;16.928;2022-12-07T13:44:25;27.17;;;14.13;;
75272;SDS011;63869;52.344;16.928;2022-12-07T13:47:05;19.95;;;10.05;;
75272;SDS011;63869;52.344;16.928;2022-12-07T13:49:50;15.75;;;7.28;;
75272;SDS011;63869;52.344;16.928;2022-12-07T13:52:20;18.45;;;8.40;;
75272;SDS011;63869;52.344;16.928;2022-12-07T13:54:59;16.85;;;9.13;;
75272;SDS011;63869;52.344;16.928;2022-12-07T13:57:27;15.65;;;8.07;;
75272;SDS011;63869;52.344;16.928;2022-12-07T13:59:55;14.98;;;7.63;;
75272;SDS011;63869;52.344;16.928;2022-12-07T14:02:28;14.70;;;6.45;;
75272;SDS011;63869;52.344;16.928;2022-12-07T14:05:14;19.73;;;8.77;;
75272;SDS011;63869;52.344;16.928;2022-12-07T14:07:58;16.90;;;7.55;;
75272;SDS011;63869;52.344;16.928;2022-12-07T14:10:31;27.40;;;12.18;;
75272;SDS011;63869;52.344;16.928;2022-12-07T14:13:00;24.10;;;11.18;;
75272;SDS011;63869;52.344;16.928;2022-12-07T14:15:30;23.85;;;12.60;;
75272;SDS011;63869;52.344;16.928;2022-12-07T14:17:57;17.52;;;7.90;;
75272;SDS011;63869;52.344;16.928;2022-12-07T14:20:39;21.80;;;11.07;;
75272;SDS011;63869;52.344;16.928;2022-12-07T14:23:20;17.63;;;8.73;;
75272;SDS011;63869;52.344;16.928;2022-12-07T14:25:49;18.50;;;10.07;;
75272;SDS011;63869;52.344;16.928;2022-12-07T14:28:32;21.48;;;11.27;;
75272;SDS011;63869;52.344;16.928;2022-12-07T14:30:59;18.30;;;8.45;;
75272;SDS011;63869;52.344;16.928;2022-12-07T14:33:26;14.98;;;7.88;;
75272;SDS011;63869;52.344;16.928;2022-12-07T14:35:52;13.85;;;6.97;;
75272;SDS011;63869;52.344;16.928;2022-12-07T14:38:20;13.20;;;6.68;;
75272;SDS011;63869;52.344;16.928;2022-12-07T14:40:46;16.20;;;8.45;;
75272;SDS011;63869;52.344;16.928;2022-12-07T14:43:13;12.63;;;6.40;;
75272;SDS011;63869;52.344;16.928;2022-12-07T14:45:40;12.30;;;5.90;;
75272;SDS011;63869;52.344;16.928;2022-12-07T14:48:07;14.38;;;7.50;;
75272;SDS011;63869;52.344;16.928;2022-12-07T14:50:38;13.95;;;6.55;;
75272;SDS011;63869;52.344;16.928;2022-12-07T14:53:10;11.63;;;5.68;;
75272;SDS011;63869;52.344;16.928;2022-12-07T14:55:39;26.85;;;12.35;;
75272;SDS011;63869;52.344;16.928;2022-12-07T14:58:04;31.77;;;15.90;;
75272;SDS011;63869;52.344;16.928;2022-12-07T15:00:29;20.95;;;10.15;;
75272;SDS011;63869;52.344;16.928;2022-12-07T15:02:55;19.27;;;8.60;;
75272;SDS011;63869;52.344;16.928;2022-12-07T15:05:21;21.67;;;9.85;;
75272;SDS011;63869;52.344;16.928;2022-12-07T15:07:47;17.77;;;9.15;;
75272;SDS011;63869;52.344;16.928;2022-12-07T15:10:14;21.42;;;9.95;;
75272;SDS011;63869;52.344;16.928;2022-12-07T15:12:40;21.75;;;10.10;;
75272;SDS011;63869;52.344;16.928;2022-12-07T15:15:06;19.65;;;8.77;;
75272;SDS011;63869;52.344;16.928;2022-12-07T15:17:31;20.25;;;9.52;;
75272;SDS011;63869;52.344;16.928;2022-12-07T15:19:56;26.02;;;12.30;;
75272;SDS011;63869;52.344;16.928;2022-12-07T15:22:22;24.13;;;10.80;;
75272;SDS011;63869;52.344;16.928;2022-12-07T15:24:47;22.65;;;11.25;;
75272;SDS011;63869;52.344;16.928;2022-12-07T15:27:12;26.50;;;12.25;;
75272;SDS011;63869;52.344;16.928;2022-12-07T15:29:37;26.52;;;11.43;;
75272;SDS011;63869;52.344;16.928;2022-12-07T15:32:03;25.65;;;10.48;;
75272;SDS011;63869;52.344;16.928;2022-12-07T15:34:28;21.30;;;9.40;;
75272;SDS011;63869;52.344;16.928;2022-12-07T15:36:54;23.33;;;10.05;;
75272;SDS011;63869;52.344;16.928;2022-12-07T15:39:19;23.08;;;10.27;;
75272;SDS011;63869;52.344;16.928;2022-12-07T15:41:44;28.20;;;12.23;;
75272;SDS011;63869;52.344;16.928;2022-12-07T15:44:11;47.80;;;26.02;;
75272;SDS011;63869;52.344;16.928;2022-12-07T15:46:56;19.30;;;9.57;;
75272;SDS011;63869;52.344;16.928;2022-12-07T15:49:22;21.83;;;10.35;;
75272;SDS011;63869;52.344;16.928;2022-12-07T15:51:47;22.48;;;10.00;;
75272;SDS011;63869;52.344;16.928;2022-12-07T15:54:16;19.80;;;9.60;;
75272;SDS011;63869;52.344;16.928;2022-12-07T15:56:44;20.65;;;9.15;;
75272;SDS011;63869;52.344;16.928;2022-12-07T15:59:09;21.67;;;10.23;;
75272;SDS011;63869;52.344;16.928;2022-12-07T16:01:35;23.63;;;10.95;;
75272;SDS011;63869;52.344;16.928;2022-12-07T16:04:00;24.35;;;10.50;;
75272;SDS011;63869;52.344;16.928;2022-12-07T16:06:25;27.52;;;12.40;;
75272;SDS011;63869;52.344;16.928;2022-12-07T16:08:51;29.27;;;12.18;;
75272;SDS011;63869;52.344;16.928;2022-12-07T16:11:17;18.80;;;9.35;;
75272;SDS011;63869;52.344;16.928;2022-12-07T16:13:42;19.17;;;8.27;;
75272;SDS011;63869;52.344;16.928;2022-12-07T16:16:09;15.50;;;7.78;;
75272;SDS011;63869;52.344;16.928;2022-12-07T16:18:37;20.92;;;10.80;;
75272;SDS011;63869;52.344;16.928;2022-12-07T16:21:03;23.65;;;11.25;;
75272;SDS011;63869;52.344;16.928;2022-12-07T16:23:28;35.70;;;12.45;;
75272;SDS011;63869;52.344;16.928;2022-12-07T16:25:54;49.05;;;19.35;;
75272;SDS011;63869;52.344;16.928;2022-12-07T16:28:19;24.75;;;12.15;;
75272;SDS011;63869;52.344;16.928;2022-12-07T16:30:45;26.60;;;11.77;;
75272;SDS011;63869;52.344;16.928;2022-12-07T16:33:10;23.08;;;10.88;;
75272;SDS011;63869;52.344;16.928;2022-12-07T16:35:39;26.23;;;12.13;;
75272;SDS011;63869;52.344;16.928;2022-12-07T16:38:08;16.42;;;8.10;;